BISS weather

Sandskei├░ Airport
Sandskei├░, Capital Region, Iceland

Public forecast

Using degrees Celsius for public forecast. Weather courtesy of forecast.io.

METAR (pilot weather report)

Closest report is Reykjavik Airport, 10.5 nm (19.4 km) WNW. Retrieved 2019/04/26 16:00 UTC (5 minutes ago):

BIRK 261600Z 10007KT 9999 FEW030 SCT049 BKN065 12/05 Q0999

TAF (pilot weather forecast)

Closest forecast is Reykjavik Airport, 10.5 nm (19.4 km) WNW. Retrieved 2019/04/26 15:36 UTC (29 minutes ago):

TAF BIRK 261335Z 2615/2715 12010KT 9999 -DZ FEW010 OVC020 TX12/2712Z TN07/2621Z BECMG 2617/2619 35012KT 7000 RADZ SCT012 OVC020 BECMG 2622/2700 11015KT BKN015